sensor_id;sensor_type;location;lat;lon;timestamp;P1;durP1;ratioP1;P2;durP2;ratioP2
16115;SDS011;8162;47.104;15.432;2023-03-04T00:00:53;20.17;;;11.33;;
16115;SDS011;8162;47.104;15.432;2023-03-04T00:03:53;16.33;;;11.10;;
16115;SDS011;8162;47.104;15.432;2023-03-04T00:06:54;17.07;;;10.83;;
16115;SDS011;8162;47.104;15.432;2023-03-04T00:09:55;13.97;;;9.87;;
16115;SDS011;8162;47.104;15.432;2023-03-04T00:12:55;19.20;;;10.90;;
16115;SDS011;8162;47.104;15.432;2023-03-04T00:15:56;15.73;;;10.97;;
16115;SDS011;8162;47.104;15.432;2023-03-04T00:18:57;16.13;;;11.40;;
16115;SDS011;8162;47.104;15.432;2023-03-04T00:21:58;14.30;;;9.97;;
16115;SDS011;8162;47.104;15.432;2023-03-04T00:24:59;13.87;;;9.13;;
16115;SDS011;8162;47.104;15.432;2023-03-04T00:27:59;15.83;;;9.80;;
16115;SDS011;8162;47.104;15.432;2023-03-04T00:31:00;15.57;;;10.67;;
16115;SDS011;8162;47.104;15.432;2023-03-04T00:34:01;15.97;;;10.17;;
16115;SDS011;8162;47.104;15.432;2023-03-04T00:37:02;16.93;;;10.87;;
16115;SDS011;8162;47.104;15.432;2023-03-04T00:40:03;15.33;;;10.20;;
16115;SDS011;8162;47.104;15.432;2023-03-04T00:43:04;14.13;;;10.23;;
16115;SDS011;8162;47.104;15.432;2023-03-04T00:46:05;13.73;;;8.87;;
16115;SDS011;8162;47.104;15.432;2023-03-04T00:49:06;13.47;;;9.17;;
16115;SDS011;8162;47.104;15.432;2023-03-04T00:52:06;14.17;;;10.03;;
16115;SDS011;8162;47.104;15.432;2023-03-04T00:55:07;13.37;;;9.03;;
16115;SDS011;8162;47.104;15.432;2023-03-04T00:58:08;14.20;;;9.33;;
16115;SDS011;8162;47.104;15.432;2023-03-04T01:01:09;13.93;;;10.10;;
16115;SDS011;8162;47.104;15.432;2023-03-04T01:04:10;14.17;;;9.10;;
16115;SDS011;8162;47.104;15.432;2023-03-04T01:07:10;14.23;;;10.17;;
16115;SDS011;8162;47.104;15.432;2023-03-04T01:10:12;12.57;;;9.27;;
16115;SDS011;8162;47.104;15.432;2023-03-04T01:13:14;11.70;;;8.80;;
16115;SDS011;8162;47.104;15.432;2023-03-04T01:16:15;14.57;;;8.97;;
16115;SDS011;8162;47.104;15.432;2023-03-04T01:19:16;13.90;;;9.70;;
16115;SDS011;8162;47.104;15.432;2023-03-04T01:22:16;15.67;;;10.07;;
16115;SDS011;8162;47.104;15.432;2023-03-04T01:25:18;14.77;;;9.73;;
16115;SDS011;8162;47.104;15.432;2023-03-04T01:28:18;13.90;;;9.07;;
16115;SDS011;8162;47.104;15.432;2023-03-04T01:31:19;13.10;;;9.23;;
16115;SDS011;8162;47.104;15.432;2023-03-04T01:34:20;11.93;;;8.80;;
16115;SDS011;8162;47.104;15.432;2023-03-04T01:37:21;12.53;;;9.07;;
16115;SDS011;8162;47.104;15.432;2023-03-04T01:40:21;13.80;;;9.07;;
16115;SDS011;8162;47.104;15.432;2023-03-04T01:43:23;14.60;;;9.00;;
16115;SDS011;8162;47.104;15.432;2023-03-04T01:46:26;14.60;;;9.27;;
16115;SDS011;8162;47.104;15.432;2023-03-04T01:49:27;13.33;;;9.07;;
16115;SDS011;8162;47.104;15.432;2023-03-04T01:52:28;15.63;;;9.83;;
16115;SDS011;8162;47.104;15.432;2023-03-04T01:55:29;16.40;;;9.10;;
16115;SDS011;8162;47.104;15.432;2023-03-04T01:58:31;11.53;;;8.33;;
16115;SDS011;8162;47.104;15.432;2023-03-04T02:01:32;13.83;;;8.83;;
16115;SDS011;8162;47.104;15.432;2023-03-04T02:04:33;12.10;;;8.80;;
16115;SDS011;8162;47.104;15.432;2023-03-04T02:07:34;14.23;;;8.63;;
16115;SDS011;8162;47.104;15.432;2023-03-04T02:10:34;13.60;;;9.03;;
16115;SDS011;8162;47.104;15.432;2023-03-04T02:13:36;15.23;;;9.13;;
16115;SDS011;8162;47.104;15.432;2023-03-04T02:16:36;15.43;;;9.27;;
16115;SDS011;8162;47.104;15.432;2023-03-04T02:22:46;14.27;;;10.03;;
16115;SDS011;8162;47.104;15.432;2023-03-04T02:26:11;12.70;;;8.20;;
16115;SDS011;8162;47.104;15.432;2023-03-04T02:29:20;16.63;;;9.20;;
16115;SDS011;8162;47.104;15.432;2023-03-04T02:32:21;13.33;;;9.23;;
16115;SDS011;8162;47.104;15.432;2023-03-04T02:35:21;13.83;;;9.17;;
16115;SDS011;8162;47.104;15.432;2023-03-04T02:38:22;14.13;;;8.70;;
16115;SDS011;8162;47.104;15.432;2023-03-04T02:41:24;13.70;;;8.57;;
16115;SDS011;8162;47.104;15.432;2023-03-04T02:44:28;12.43;;;8.40;;
16115;SDS011;8162;47.104;15.432;2023-03-04T02:47:30;15.47;;;9.53;;
16115;SDS011;8162;47.104;15.432;2023-03-04T02:50:33;16.97;;;9.60;;
16115;SDS011;8162;47.104;15.432;2023-03-04T02:53:36;13.97;;;9.00;;
16115;SDS011;8162;47.104;15.432;2023-03-04T02:56:37;17.17;;;8.67;;
16115;SDS011;8162;47.104;15.432;2023-03-04T02:59:38;15.97;;;9.77;;
16115;SDS011;8162;47.104;15.432;2023-03-04T03:02:39;13.97;;;8.63;;
16115;SDS011;8162;47.104;15.432;2023-03-04T03:05:40;11.40;;;8.30;;
16115;SDS011;8162;47.104;15.432;2023-03-04T03:08:41;12.83;;;8.23;;
16115;SDS011;8162;47.104;15.432;2023-03-04T03:11:42;11.63;;;8.93;;
16115;SDS011;8162;47.104;15.432;2023-03-04T03:14:42;12.17;;;8.40;;
16115;SDS011;8162;47.104;15.432;2023-03-04T03:17:43;17.67;;;9.37;;
16115;SDS011;8162;47.104;15.432;2023-03-04T03:20:44;13.77;;;9.27;;
16115;SDS011;8162;47.104;15.432;2023-03-04T03:23:45;13.07;;;9.77;;
16115;SDS011;8162;47.104;15.432;2023-03-04T03:26:46;16.37;;;9.83;;
16115;SDS011;8162;47.104;15.432;2023-03-04T03:29:47;14.77;;;8.73;;
16115;SDS011;8162;47.104;15.432;2023-03-04T03:32:47;14.00;;;9.00;;
16115;SDS011;8162;47.104;15.432;2023-03-04T03:35:48;12.07;;;7.77;;
16115;SDS011;8162;47.104;15.432;2023-03-04T03:38:49;14.97;;;8.57;;
16115;SDS011;8162;47.104;15.432;2023-03-04T03:41:49;11.43;;;8.20;;
16115;SDS011;8162;47.104;15.432;2023-03-04T03:44:50;13.13;;;9.63;;
16115;SDS011;8162;47.104;15.432;2023-03-04T03:47:51;13.10;;;8.93;;
16115;SDS011;8162;47.104;15.432;2023-03-04T03:50:51;13.73;;;9.27;;
16115;SDS011;8162;47.104;15.432;2023-03-04T03:53:52;14.47;;;9.67;;
16115;SDS011;8162;47.104;15.432;2023-03-04T03:56:53;13.83;;;8.70;;
16115;SDS011;8162;47.104;15.432;2023-03-04T03:59:54;11.70;;;8.67;;
16115;SDS011;8162;47.104;15.432;2023-03-04T04:02:55;13.83;;;9.40;;
16115;SDS011;8162;47.104;15.432;2023-03-04T04:05:58;15.87;;;9.33;;
16115;SDS011;8162;47.104;15.432;2023-03-04T04:08:59;15.10;;;9.00;;
16115;SDS011;8162;47.104;15.432;2023-03-04T04:12:00;16.20;;;10.43;;
16115;SDS011;8162;47.104;15.432;2023-03-04T04:15:01;15.07;;;9.07;;
16115;SDS011;8162;47.104;15.432;2023-03-04T04:18:01;15.83;;;9.30;;
16115;SDS011;8162;47.104;15.432;2023-03-04T04:21:02;15.97;;;9.37;;
16115;SDS011;8162;47.104;15.432;2023-03-04T04:24:04;12.30;;;8.93;;
16115;SDS011;8162;47.104;15.432;2023-03-04T04:27:04;12.63;;;9.27;;
16115;SDS011;8162;47.104;15.432;2023-03-04T04:30:05;13.13;;;9.00;;
16115;SDS011;8162;47.104;15.432;2023-03-04T04:33:07;14.33;;;8.60;;
16115;SDS011;8162;47.104;15.432;2023-03-04T04:36:11;13.60;;;9.13;;
16115;SDS011;8162;47.104;15.432;2023-03-04T04:39:13;15.20;;;9.13;;
16115;SDS011;8162;47.104;15.432;2023-03-04T04:42:14;13.13;;;9.03;;
16115;SDS011;8162;47.104;15.432;2023-03-04T04:45:15;14.97;;;10.77;;
16115;SDS011;8162;47.104;15.432;2023-03-04T04:48:16;20.17;;;9.93;;
16115;SDS011;8162;47.104;15.432;2023-03-04T04:51:16;16.33;;;9.13;;
16115;SDS011;8162;47.104;15.432;2023-03-04T04:54:17;18.33;;;9.30;;
16115;SDS011;8162;47.104;15.432;2023-03-04T04:57:18;14.70;;;8.73;;
16115;SDS011;8162;47.104;15.432;2023-03-04T05:00:19;12.60;;;9.43;;
16115;SDS011;8162;47.104;15.432;2023-03-04T05:03:20;16.53;;;9.63;;
16115;SDS011;8162;47.104;15.432;2023-03-04T05:06:21;13.60;;;9.53;;
16115;SDS011;8162;47.104;15.432;2023-03-04T05:09:22;13.43;;;8.87;;
16115;SDS011;8162;47.104;15.432;2023-03-04T05:12:23;13.70;;;10.10;;
16115;SDS011;8162;47.104;15.432;2023-03-04T05:15:24;13.93;;;9.33;;
16115;SDS011;8162;47.104;15.432;2023-03-04T05:18:25;18.40;;;11.10;;
16115;SDS011;8162;47.104;15.432;2023-03-04T05:21:26;19.93;;;9.07;;
16115;SDS011;8162;47.104;15.432;2023-03-04T05:24:27;13.63;;;9.20;;
16115;SDS011;8162;47.104;15.432;2023-03-04T05:27:27;15.40;;;9.17;;
16115;SDS011;8162;47.104;15.432;2023-03-04T05:30:28;15.33;;;10.47;;
16115;SDS011;8162;47.104;15.432;2023-03-04T05:33:29;15.83;;;10.10;;
16115;SDS011;8162;47.104;15.432;2023-03-04T05:36:30;15.73;;;10.17;;
16115;SDS011;8162;47.104;15.432;2023-03-04T05:39:31;14.40;;;10.13;;
16115;SDS011;8162;47.104;15.432;2023-03-04T05:42:31;15.23;;;10.10;;
16115;SDS011;8162;47.104;15.432;2023-03-04T05:45:32;12.93;;;8.80;;
16115;SDS011;8162;47.104;15.432;2023-03-04T05:48:33;16.43;;;9.27;;
16115;SDS011;8162;47.104;15.432;2023-03-04T05:51:34;17.23;;;11.03;;
16115;SDS011;8162;47.104;15.432;2023-03-04T05:54:34;19.23;;;10.30;;
16115;SDS011;8162;47.104;15.432;2023-03-04T05:57:35;13.83;;;9.47;;
16115;SDS011;8162;47.104;15.432;2023-03-04T06:00:36;14.67;;;10.47;;
16115;SDS011;8162;47.104;15.432;2023-03-04T06:03:36;15.50;;;8.63;;
16115;SDS011;8162;47.104;15.432;2023-03-04T06:06:37;11.93;;;8.77;;
16115;SDS011;8162;47.104;15.432;2023-03-04T06:09:38;14.00;;;9.27;;
16115;SDS011;8162;47.104;15.432;2023-03-04T06:12:39;14.10;;;9.60;;
16115;SDS011;8162;47.104;15.432;2023-03-04T06:15:40;12.43;;;9.23;;
16115;SDS011;8162;47.104;15.432;2023-03-04T06:18:41;16.37;;;9.20;;
16115;SDS011;8162;47.104;15.432;2023-03-04T06:21:42;14.63;;;9.00;;
16115;SDS011;8162;47.104;15.432;2023-03-04T06:24:42;12.47;;;9.13;;
16115;SDS011;8162;47.104;15.432;2023-03-04T06:27:43;17.07;;;9.20;;
16115;SDS011;8162;47.104;15.432;2023-03-04T06:30:44;16.97;;;9.90;;
16115;SDS011;8162;47.104;15.432;2023-03-04T06:33:44;16.03;;;9.63;;
16115;SDS011;8162;47.104;15.432;2023-03-04T06:36:45;15.17;;;10.20;;
16115;SDS011;8162;47.104;15.432;2023-03-04T06:39:46;16.00;;;9.37;;
16115;SDS011;8162;47.104;15.432;2023-03-04T06:42:47;15.67;;;9.53;;
16115;SDS011;8162;47.104;15.432;2023-03-04T06:45:47;14.97;;;9.63;;
16115;SDS011;8162;47.104;15.432;2023-03-04T06:48:48;12.43;;;9.23;;
16115;SDS011;8162;47.104;15.432;2023-03-04T06:51:49;14.80;;;9.90;;
16115;SDS011;8162;47.104;15.432;2023-03-04T06:54:50;15.73;;;9.97;;
16115;SDS011;8162;47.104;15.432;2023-03-04T06:57:50;17.00;;;9.93;;
16115;SDS011;8162;47.104;15.432;2023-03-04T07:00:51;15.50;;;9.87;;
16115;SDS011;8162;47.104;15.432;2023-03-04T07:03:52;14.47;;;10.40;;
16115;SDS011;8162;47.104;15.432;2023-03-04T07:06:53;20.90;;;10.57;;
16115;SDS011;8162;47.104;15.432;2023-03-04T07:09:54;15.87;;;9.37;;
16115;SDS011;8162;47.104;15.432;2023-03-04T07:12:55;15.13;;;9.90;;
16115;SDS011;8162;47.104;15.432;2023-03-04T07:15:55;15.67;;;9.90;;
16115;SDS011;8162;47.104;15.432;2023-03-04T07:18:56;20.63;;;10.37;;
16115;SDS011;8162;47.104;15.432;2023-03-04T07:21:57;15.70;;;10.17;;
16115;SDS011;8162;47.104;15.432;2023-03-04T07:24:58;14.10;;;10.43;;
16115;SDS011;8162;47.104;15.432;2023-03-04T07:27:58;16.93;;;11.30;;
16115;SDS011;8162;47.104;15.432;2023-03-04T07:31:09;19.67;;;11.60;;
16115;SDS011;8162;47.104;15.432;2023-03-04T07:34:12;14.50;;;10.53;;
16115;SDS011;8162;47.104;15.432;2023-03-04T07:37:14;18.50;;;11.57;;
16115;SDS011;8162;47.104;15.432;2023-03-04T07:40:14;18.27;;;11.37;;
16115;SDS011;8162;47.104;15.432;2023-03-04T07:43:15;19.53;;;11.03;;
16115;SDS011;8162;47.104;15.432;2023-03-04T07:46:16;19.73;;;11.57;;
16115;SDS011;8162;47.104;15.432;2023-03-04T07:49:20;15.20;;;10.23;;
16115;SDS011;8162;47.104;15.432;2023-03-04T07:52:21;19.10;;;10.93;;
16115;SDS011;8162;47.104;15.432;2023-03-04T07:55:22;14.67;;;11.33;;
16115;SDS011;8162;47.104;15.432;2023-03-04T07:58:23;20.47;;;10.80;;
16115;SDS011;8162;47.104;15.432;2023-03-04T08:01:25;18.07;;;10.93;;
16115;SDS011;8162;47.104;15.432;2023-03-04T08:04:27;18.87;;;11.43;;
16115;SDS011;8162;47.104;15.432;2023-03-04T08:07:28;19.10;;;11.00;;
16115;SDS011;8162;47.104;15.432;2023-03-04T08:10:29;16.67;;;11.27;;
16115;SDS011;8162;47.104;15.432;2023-03-04T08:13:30;19.20;;;11.23;;
16115;SDS011;8162;47.104;15.432;2023-03-04T08:16:31;18.30;;;11.63;;
16115;SDS011;8162;47.104;15.432;2023-03-04T08:19:32;17.30;;;11.70;;
16115;SDS011;8162;47.104;15.432;2023-03-04T08:22:32;21.10;;;13.47;;
16115;SDS011;8162;47.104;15.432;2023-03-04T08:25:33;17.77;;;11.57;;
16115;SDS011;8162;47.104;15.432;2023-03-04T08:28:34;19.73;;;13.07;;
16115;SDS011;8162;47.104;15.432;2023-03-04T08:31:35;22.23;;;13.40;;
16115;SDS011;8162;47.104;15.432;2023-03-04T08:34:37;21.73;;;12.93;;
16115;SDS011;8162;47.104;15.432;2023-03-04T08:37:38;17.80;;;11.83;;
16115;SDS011;8162;47.104;15.432;2023-03-04T08:40:39;17.10;;;12.33;;
16115;SDS011;8162;47.104;15.432;2023-03-04T08:43:40;18.00;;;11.97;;
16115;SDS011;8162;47.104;15.432;2023-03-04T08:46:41;23.17;;;13.23;;
16115;SDS011;8162;47.104;15.432;2023-03-04T08:49:42;17.50;;;12.10;;
16115;SDS011;8162;47.104;15.432;2023-03-04T08:52:43;20.67;;;12.57;;
16115;SDS011;8162;47.104;15.432;2023-03-04T08:55:44;17.87;;;12.53;;
16115;SDS011;8162;47.104;15.432;2023-03-04T08:58:45;18.83;;;13.30;;
16115;SDS011;8162;47.104;15.432;2023-03-04T09:01:45;17.57;;;12.70;;
16115;SDS011;8162;47.104;15.432;2023-03-04T09:04:46;18.83;;;12.80;;
16115;SDS011;8162;47.104;15.432;2023-03-04T09:07:47;20.20;;;13.57;;
16115;SDS011;8162;47.104;15.432;2023-03-04T09:10:50;16.33;;;13.10;;
16115;SDS011;8162;47.104;15.432;2023-03-04T09:13:51;17.50;;;13.60;;
16115;SDS011;8162;47.104;15.432;2023-03-04T09:16:52;17.10;;;11.90;;
16115;SDS011;8162;47.104;15.432;2023-03-04T09:19:53;16.27;;;12.53;;
16115;SDS011;8162;47.104;15.432;2023-03-04T09:22:54;18.90;;;12.67;;
16115;SDS011;8162;47.104;15.432;2023-03-04T09:25:54;22.47;;;13.23;;
16115;SDS011;8162;47.104;15.432;2023-03-04T09:28:56;16.57;;;12.43;;
16115;SDS011;8162;47.104;15.432;2023-03-04T09:31:59;17.20;;;11.70;;
16115;SDS011;8162;47.104;15.432;2023-03-04T09:35:01;14.20;;;11.23;;
16115;SDS011;8162;47.104;15.432;2023-03-04T09:38:02;13.17;;;11.10;;
16115;SDS011;8162;47.104;15.432;2023-03-04T09:41:11;17.80;;;12.37;;
16115;SDS011;8162;47.104;15.432;2023-03-04T09:47:15;17.27;;;11.90;;
16115;SDS011;8162;47.104;15.432;2023-03-04T09:50:18;16.37;;;12.63;;
16115;SDS011;8162;47.104;15.432;2023-03-04T09:53:20;14.97;;;11.90;;
16115;SDS011;8162;47.104;15.432;2023-03-04T09:56:22;14.27;;;11.57;;
16115;SDS011;8162;47.104;15.432;2023-03-04T10:05:33;17.10;;;11.47;;
16115;SDS011;8162;47.104;15.432;2023-03-04T10:08:51;18.00;;;11.30;;
16115;SDS011;8162;47.104;15.432;2023-03-04T10:12:03;15.13;;;10.10;;
16115;SDS011;8162;47.104;15.432;2023-03-04T10:24:41;14.07;;;8.97;;
16115;SDS011;8162;47.104;15.432;2023-03-04T10:27:50;12.27;;;8.20;;
16115;SDS011;8162;47.104;15.432;2023-03-04T10:34:08;12.70;;;9.13;;
16115;SDS011;8162;47.104;15.432;2023-03-04T10:37:11;22.13;;;12.83;;
16115;SDS011;8162;47.104;15.432;2023-03-04T10:40:19;19.13;;;12.20;;
16115;SDS011;8162;47.104;15.432;2023-03-04T10:43:21;19.17;;;12.87;;
16115;SDS011;8162;47.104;15.432;2023-03-04T10:46:22;13.73;;;9.40;;
16115;SDS011;8162;47.104;15.432;2023-03-04T10:49:23;11.77;;;8.47;;
16115;SDS011;8162;47.104;15.432;2023-03-04T10:52:35;11.53;;;7.53;;
16115;SDS011;8162;47.104;15.432;2023-03-04T10:55:43;10.87;;;6.73;;
16115;SDS011;8162;47.104;15.432;2023-03-04T10:58:44;11.40;;;6.00;;
16115;SDS011;8162;47.104;15.432;2023-03-04T11:01:45;7.83;;;6.03;;
16115;SDS011;8162;47.104;15.432;2023-03-04T11:04:49;7.50;;;5.30;;
16115;SDS011;8162;47.104;15.432;2023-03-04T11:07:53;10.83;;;5.67;;
16115;SDS011;8162;47.104;15.432;2023-03-04T11:10:57;10.67;;;5.30;;
16115;SDS011;8162;47.104;15.432;2023-03-04T11:13:59;6.13;;;5.33;;
16115;SDS011;8162;47.104;15.432;2023-03-04T11:17:15;10.80;;;5.83;;
16115;SDS011;8162;47.104;15.432;2023-03-04T11:23:48;7.43;;;4.87;;
16115;SDS011;8162;47.104;15.432;2023-03-04T11:27:28;9.93;;;5.87;;
16115;SDS011;8162;47.104;15.432;2023-03-04T11:30:38;10.27;;;5.30;;
16115;SDS011;8162;47.104;15.432;2023-03-04T11:33:46;7.13;;;4.47;;
16115;SDS011;8162;47.104;15.432;2023-03-04T11:37:18;9.33;;;4.47;;
16115;SDS011;8162;47.104;15.432;2023-03-04T11:43:52;9.97;;;4.93;;
16115;SDS011;8162;47.104;15.432;2023-03-04T11:53:35;10.23;;;5.27;;
16115;SDS011;8162;47.104;15.432;2023-03-04T11:56:49;12.93;;;4.93;;
16115;SDS011;8162;47.104;15.432;2023-03-04T12:07:52;7.50;;;4.27;;
16115;SDS011;8162;47.104;15.432;2023-03-04T12:14:17;8.37;;;4.37;;
16115;SDS011;8162;47.104;15.432;2023-03-04T12:23:56;5.67;;;4.03;;
16115;SDS011;8162;47.104;15.432;2023-03-04T12:37:55;8.83;;;4.63;;
16115;SDS011;8162;47.104;15.432;2023-03-04T12:44:46;7.20;;;4.30;;
16115;SDS011;8162;47.104;15.432;2023-03-04T12:54:31;10.77;;;4.30;;
16115;SDS011;8162;47.104;15.432;2023-03-04T12:57:38;12.97;;;4.53;;
16115;SDS011;8162;47.104;15.432;2023-03-04T13:07:28;10.43;;;4.30;;
16115;SDS011;8162;47.104;15.432;2023-03-04T13:21:30;7.63;;;3.80;;
16115;SDS011;8162;47.104;15.432;2023-03-04T13:24:45;10.90;;;4.07;;
16115;SDS011;8162;47.104;15.432;2023-03-04T13:28:01;12.30;;;4.63;;
16115;SDS011;8162;47.104;15.432;2023-03-04T13:31:14;8.10;;;4.17;;
16115;SDS011;8162;47.104;15.432;2023-03-04T13:37:55;9.40;;;3.77;;
16115;SDS011;8162;47.104;15.432;2023-03-04T13:44:31;9.30;;;4.17;;
16115;SDS011;8162;47.104;15.432;2023-03-04T13:47:41;11.40;;;4.53;;
16115;SDS011;8162;47.104;15.432;2023-03-04T13:50:45;8.83;;;3.70;;
16115;SDS011;8162;47.104;15.432;2023-03-04T13:57:14;8.57;;;3.90;;
16115;SDS011;8162;47.104;15.432;2023-03-04T14:00:18;6.63;;;4.00;;
16115;SDS011;8162;47.104;15.432;2023-03-04T14:03:23;10.90;;;4.13;;
16115;SDS011;8162;47.104;15.432;2023-03-04T14:09:28;8.63;;;4.00;;
16115;SDS011;8162;47.104;15.432;2023-03-04T14:12:31;13.10;;;3.90;;
16115;SDS011;8162;47.104;15.432;2023-03-04T14:15:54;10.27;;;4.17;;
16115;SDS011;8162;47.104;15.432;2023-03-04T14:18:56;7.23;;;3.40;;
16115;SDS011;8162;47.104;15.432;2023-03-04T14:21:58;12.90;;;3.97;;
16115;SDS011;8162;47.104;15.432;2023-03-04T14:25:05;10.43;;;4.13;;
16115;SDS011;8162;47.104;15.432;2023-03-04T14:28:11;8.03;;;4.10;;
16115;SDS011;8162;47.104;15.432;2023-03-04T14:31:16;7.77;;;4.00;;
16115;SDS011;8162;47.104;15.432;2023-03-04T14:34:39;8.23;;;3.80;;
16115;SDS011;8162;47.104;15.432;2023-03-04T14:37:43;8.47;;;3.47;;
16115;SDS011;8162;47.104;15.432;2023-03-04T14:40:49;9.77;;;3.33;;
16115;SDS011;8162;47.104;15.432;2023-03-04T14:44:01;10.53;;;3.87;;
16115;SDS011;8162;47.104;15.432;2023-03-04T14:50:46;8.40;;;3.83;;
16115;SDS011;8162;47.104;15.432;2023-03-04T14:53:52;7.23;;;3.87;;
16115;SDS011;8162;47.104;15.432;2023-03-04T14:56:55;9.83;;;3.63;;
16115;SDS011;8162;47.104;15.432;2023-03-04T15:00:06;9.10;;;4.10;;
16115;SDS011;8162;47.104;15.432;2023-03-04T15:03:24;7.20;;;3.47;;
16115;SDS011;8162;47.104;15.432;2023-03-04T15:06:29;10.03;;;4.73;;
16115;SDS011;8162;47.104;15.432;2023-03-04T15:09:33;6.83;;;4.30;;
16115;SDS011;8162;47.104;15.432;2023-03-04T15:12:34;8.43;;;4.60;;
16115;SDS011;8162;47.104;15.432;2023-03-04T15:15:44;8.57;;;4.23;;
16115;SDS011;8162;47.104;15.432;2023-03-04T15:18:53;8.00;;;4.20;;
16115;SDS011;8162;47.104;15.432;2023-03-04T15:22:01;7.37;;;3.87;;
16115;SDS011;8162;47.104;15.432;2023-03-04T15:25:03;7.17;;;4.07;;
16115;SDS011;8162;47.104;15.432;2023-03-04T15:28:05;9.47;;;4.07;;
16115;SDS011;8162;47.104;15.432;2023-03-04T15:31:15;9.93;;;4.50;;
16115;SDS011;8162;47.104;15.432;2023-03-04T15:34:18;7.73;;;4.03;;
16115;SDS011;8162;47.104;15.432;2023-03-04T15:37:24;7.23;;;3.97;;
16115;SDS011;8162;47.104;15.432;2023-03-04T15:43:26;6.97;;;3.80;;
16115;SDS011;8162;47.104;15.432;2023-03-04T15:46:27;9.03;;;3.40;;
16115;SDS011;8162;47.104;15.432;2023-03-04T15:49:29;5.47;;;3.07;;
16115;SDS011;8162;47.104;15.432;2023-03-04T15:52:30;4.63;;;3.10;;
16115;SDS011;8162;47.104;15.432;2023-03-04T15:55:32;8.57;;;3.00;;
16115;SDS011;8162;47.104;15.432;2023-03-04T15:58:34;6.33;;;3.07;;
16115;SDS011;8162;47.104;15.432;2023-03-04T16:01:39;6.87;;;3.10;;
16115;SDS011;8162;47.104;15.432;2023-03-04T16:04:40;7.27;;;2.90;;
16115;SDS011;8162;47.104;15.432;2023-03-04T16:07:45;6.10;;;2.90;;
16115;SDS011;8162;47.104;15.432;2023-03-04T16:10:46;7.77;;;2.80;;
16115;SDS011;8162;47.104;15.432;2023-03-04T16:13:48;9.00;;;3.50;;
16115;SDS011;8162;47.104;15.432;2023-03-04T16:16:49;4.87;;;3.10;;
16115;SDS011;8162;47.104;15.432;2023-03-04T16:19:52;6.07;;;3.30;;
16115;SDS011;8162;47.104;15.432;2023-03-04T16:22:57;5.23;;;2.87;;
16115;SDS011;8162;47.104;15.432;2023-03-04T16:25:59;5.70;;;3.20;;
16115;SDS011;8162;47.104;15.432;2023-03-04T16:29:00;3.03;;;2.60;;
16115;SDS011;8162;47.104;15.432;2023-03-04T16:32:02;6.37;;;2.70;;
16115;SDS011;8162;47.104;15.432;2023-03-04T16:35:03;5.27;;;2.70;;
16115;SDS011;8162;47.104;15.432;2023-03-04T16:38:10;6.50;;;3.00;;
16115;SDS011;8162;47.104;15.432;2023-03-04T16:41:15;4.37;;;2.83;;
16115;SDS011;8162;47.104;15.432;2023-03-04T16:44:17;6.80;;;3.00;;
16115;SDS011;8162;47.104;15.432;2023-03-04T16:47:18;4.30;;;3.00;;
16115;SDS011;8162;47.104;15.432;2023-03-04T16:50:21;7.43;;;3.37;;
16115;SDS011;8162;47.104;15.432;2023-03-04T16:53:31;8.10;;;4.20;;
16115;SDS011;8162;47.104;15.432;2023-03-04T16:56:33;8.00;;;3.53;;
16115;SDS011;8162;47.104;15.432;2023-03-04T16:59:34;6.13;;;2.53;;
16115;SDS011;8162;47.104;15.432;2023-03-04T17:02:35;7.37;;;3.40;;
16115;SDS011;8162;47.104;15.432;2023-03-04T17:05:36;6.27;;;3.20;;
16115;SDS011;8162;47.104;15.432;2023-03-04T17:08:38;4.60;;;3.00;;
16115;SDS011;8162;47.104;15.432;2023-03-04T17:11:39;4.37;;;2.80;;
16115;SDS011;8162;47.104;15.432;2023-03-04T17:14:40;5.23;;;2.87;;
16115;SDS011;8162;47.104;15.432;2023-03-04T17:17:41;3.43;;;2.60;;
16115;SDS011;8162;47.104;15.432;2023-03-04T17:20:43;5.47;;;3.27;;
16115;SDS011;8162;47.104;15.432;2023-03-04T17:23:44;4.27;;;2.70;;
16115;SDS011;8162;47.104;15.432;2023-03-04T17:26:47;6.63;;;3.13;;
16115;SDS011;8162;47.104;15.432;2023-03-04T17:29:48;7.00;;;3.50;;
16115;SDS011;8162;47.104;15.432;2023-03-04T17:32:52;7.50;;;3.00;;
16115;SDS011;8162;47.104;15.432;2023-03-04T17:35:53;5.73;;;2.90;;
16115;SDS011;8162;47.104;15.432;2023-03-04T17:38:58;6.43;;;3.73;;
16115;SDS011;8162;47.104;15.432;2023-03-04T17:41:59;4.93;;;2.80;;
16115;SDS011;8162;47.104;15.432;2023-03-04T17:45:00;6.33;;;3.27;;
16115;SDS011;8162;47.104;15.432;2023-03-04T17:48:02;9.20;;;3.77;;
16115;SDS011;8162;47.104;15.432;2023-03-04T17:51:03;5.87;;;3.40;;
16115;SDS011;8162;47.104;15.432;2023-03-04T17:54:05;5.83;;;3.70;;
16115;SDS011;8162;47.104;15.432;2023-03-04T17:57:07;8.90;;;3.80;;
16115;SDS011;8162;47.104;15.432;2023-03-04T18:00:09;6.77;;;3.30;;
16115;SDS011;8162;47.104;15.432;2023-03-04T18:03:11;6.03;;;3.13;;
16115;SDS011;8162;47.104;15.432;2023-03-04T18:06:12;5.20;;;3.47;;
16115;SDS011;8162;47.104;15.432;2023-03-04T18:09:15;7.80;;;4.50;;
16115;SDS011;8162;47.104;15.432;2023-03-04T18:12:16;5.87;;;4.60;;
16115;SDS011;8162;47.104;15.432;2023-03-04T18:15:18;10.83;;;4.80;;
16115;SDS011;8162;47.104;15.432;2023-03-04T18:18:19;5.27;;;3.63;;
16115;SDS011;8162;47.104;15.432;2023-03-04T18:21:20;7.20;;;4.67;;
16115;SDS011;8162;47.104;15.432;2023-03-04T18:24:21;9.33;;;4.73;;
16115;SDS011;8162;47.104;15.432;2023-03-04T18:27:22;4.77;;;4.03;;
16115;SDS011;8162;47.104;15.432;2023-03-04T18:30:24;6.57;;;3.97;;
16115;SDS011;8162;47.104;15.432;2023-03-04T18:33:26;5.17;;;3.10;;
16115;SDS011;8162;47.104;15.432;2023-03-04T18:36:29;4.00;;;2.90;;
16115;SDS011;8162;47.104;15.432;2023-03-04T18:39:30;5.73;;;3.43;;
16115;SDS011;8162;47.104;15.432;2023-03-04T18:42:31;10.57;;;9.20;;
16115;SDS011;8162;47.104;15.432;2023-03-04T18:45:33;8.70;;;5.43;;
16115;SDS011;8162;47.104;15.432;2023-03-04T18:48:44;8.93;;;5.03;;
16115;SDS011;8162;47.104;15.432;2023-03-04T18:51:46;7.40;;;4.27;;
16115;SDS011;8162;47.104;15.432;2023-03-04T18:54:48;9.33;;;4.20;;
16115;SDS011;8162;47.104;15.432;2023-03-04T18:57:49;7.50;;;4.33;;
16115;SDS011;8162;47.104;15.432;2023-03-04T19:00:51;5.50;;;4.73;;
16115;SDS011;8162;47.104;15.432;2023-03-04T19:03:54;8.27;;;3.40;;
16115;SDS011;8162;47.104;15.432;2023-03-04T19:06:58;5.37;;;3.33;;
16115;SDS011;8162;47.104;15.432;2023-03-04T19:09:59;4.50;;;3.53;;
16115;SDS011;8162;47.104;15.432;2023-03-04T19:13:00;4.90;;;3.63;;
16115;SDS011;8162;47.104;15.432;2023-03-04T19:16:02;7.37;;;4.77;;
16115;SDS011;8162;47.104;15.432;2023-03-04T19:19:04;7.37;;;4.33;;
16115;SDS011;8162;47.104;15.432;2023-03-04T19:22:05;9.57;;;3.67;;
16115;SDS011;8162;47.104;15.432;2023-03-04T19:25:07;4.87;;;3.47;;
16115;SDS011;8162;47.104;15.432;2023-03-04T19:28:10;4.43;;;2.90;;
16115;SDS011;8162;47.104;15.432;2023-03-04T19:31:11;4.30;;;3.10;;
16115;SDS011;8162;47.104;15.432;2023-03-04T19:34:13;4.97;;;3.43;;
16115;SDS011;8162;47.104;15.432;2023-03-04T19:37:14;6.57;;;3.40;;
16115;SDS011;8162;47.104;15.432;2023-03-04T19:40:16;6.73;;;2.90;;
16115;SDS011;8162;47.104;15.432;2023-03-04T19:43:17;6.13;;;3.50;;
16115;SDS011;8162;47.104;15.432;2023-03-04T19:46:19;7.70;;;4.10;;
16115;SDS011;8162;47.104;15.432;2023-03-04T19:49:22;5.73;;;3.30;;
16115;SDS011;8162;47.104;15.432;2023-03-04T19:52:25;5.63;;;3.10;;
16115;SDS011;8162;47.104;15.432;2023-03-04T19:55:26;5.77;;;3.47;;
16115;SDS011;8162;47.104;15.432;2023-03-04T19:58:27;7.10;;;3.63;;
16115;SDS011;8162;47.104;15.432;2023-03-04T20:01:29;7.93;;;3.23;;